Erath, Louisiana
Current Conditions -  °F | °C
As of 11:35 AM on Wednesday 26 Nov 2014 (Local Time) from KIYA Reporting Station
Clear Clear  
Wind Chill: 67°   Ceiling: Unl
Heat Index: 67°   Visibility: 10mi
Dew Point: 41°   Wind: 17mph
Humidity: 39%   Direction: 220°SW
Pressure: 30.24"   Gusts: 24mph
Location:  29.96°N, 92.04°W
Report Text: KIYA 261735Z AUTO 22015G21KT 10SM CLR 19/05 A3024 RMK AO2 T01940050
Loading
Personal Weather Stations






























Interactive Weather Map New forecast layout! Learn more

10-Day Weather Forecast

Advertisements
Track Severe Weather on mobile